Pagina principale
METAR-TAF:

METAR-TAF

Aeroporti :

Bredasdorp, Sudafrica

latitudine: 34-33-17S, longitudine: 20-15-02E, altezza: 16 m

Osservazione

Il bollettino è stato emesso 49 minuti fa, alle 20:00 UTC
Vento 3 kt da nord-est
Temperature 6°C
Umidità 87%
Pressione 1019 hPa

METAR: FAOB 162000Z AUTO 04003KT //// // ////// 06/04 Q1019

Ora: 22:49 (20:49 UTC)


TAF: mancante

Osservazioni e previsioni meteorologiche di più di 4000 aeroporti (messaggi METAR e TAF).

Le stazioni disponibili sono rappresentate dai dischi gialli e rossi sulla carta.

Puntare il mouse per vedere il nome della stazione.

Clicca sopra per visualizzare le osservazioni e previsioni meteorologiche.

Per cambiare la mappa : fare clic sui pulsanti verdi con una croce nera per ingrandire, il pulsante verde con un trattino per diminuire, o sulla freccia verde per le mappe adiacenti.


METAR-TAF: